• Join FlightAware (Why Join?)
  • Login
  • US Flag 
12:24PM EST


 

Airport Tracker/Info


-or-


 

Live Flight TrackerFlight Track Log ✈ SKW6492 ✈ 31-Aug-2013 ✈ KDEN - KCOD

Flight Track Log - Related Links

Times and Time Zones

All times are in EDT time to prevent confusion due to time zone crossing. See the SKW6492 flight status page for this flight to view local times or setup timezone preferences in your user account.

Time Position Orientation Groundspeed Altitude Reporting Facility
EDT Latitude Longitude Course Direction KTS MPH feet Rate Location/Type
09:40PM 39.9408 -104.6869 348° North 213 245 7,600  Level Denver Center
09:41PM 40.0142 -104.6672 12° North 263 303 9,200 1,770 Climbing Denver Center
09:42PM 40.1593 -104.7695 347° North  Level FlightAware Approximate
09:42PM 40.0936 -104.6669 360° North 292 336 11,200  Level Denver Center
09:43PM 40.2633 -104.8006 347° North  Level FlightAware Approximate
09:43PM 40.1833 -104.6908 349° North 304 350 13,100  Level Denver Center
09:44PM 40.3669 -104.8334 346° North  Level FlightAware Approximate
09:44PM 40.2683 -104.7133 349° North 314 361 14,900  Level Denver Center
09:45PM 40.4702 -104.8678 346° North  Level FlightAware Approximate
09:45PM 40.3556 -104.7358 349° North 320 368 16,800  Level Denver Center
09:46PM 40.5741 -104.8997 348° North  Level FlightAware Approximate
09:46PM 40.4469 -104.7594 349° North 337 388 17,800  Level Denver Center
09:47PM 40.5469 -104.7889 347° North 342 394 19,400 1,525 Climbing Denver Center
09:48PM 40.6414 -104.8125 349° North 346 398 20,900 1,388 Climbing Denver Center
09:50PM 40.7542 -104.8403 349° North 332 382 22,500 1,164 Climbing Denver Center
09:51PM 40.8450 -104.8808 341° North 343 395 23,500 984 Climbing Denver Center
09:52PM 40.9211 -104.9603 322° Northwest 347 399 24,500 984 Climbing Denver Center
09:53PM 40.9983 -105.0422 321° Northwest 354 407 25,500 738 Climbing Denver Center
09:54PM 41.0806 -105.1303 321° Northwest 360 414 26,000 246 Climbing Denver Center
09:55PM 41.1603 -105.2133 322° Northwest 377 434 26,000  Level Denver Center
09:56PM 41.2442 -105.3022 321° Northwest 398 458 26,000  Level Denver Center
09:57PM 41.3450 -105.4103 321° Northwest 412 474 26,000  Level Denver Center
09:58PM 41.4356 -105.5058 322° Northwest 428 493 26,000  Level Denver Center
09:59PM 41.5253 -105.6022 321° Northwest 432 497 26,000  Level Denver Center
10:00PM 41.6311 -105.7167 321° Northwest 436 502 26,000  Level Denver Center
10:01PM 41.7222 -105.8144 321° Northwest 438 504 26,000  Level Denver Center
10:02PM 41.8119 -105.9122 321° Northwest 431 496 26,000  Level Denver Center
10:03PM 41.9189 -106.0264 322° Northwest 438 504 26,000  Level Denver Center
10:04PM 42.0081 -106.1239 321° Northwest 433 498 26,000  Level Denver Center
10:05PM 42.0969 -106.2219 321° Northwest 431 496 26,000  Level Denver Center
10:06PM 42.2025 -106.3367 321° Northwest 436 502 26,000  Level Denver Center
10:07PM 42.2908 -106.4353 320° Northwest 431 496 26,000  Level Denver Center
10:08PM 42.3811 -106.5356 321° Northwest 436 502 26,000  Level Denver Center
10:09PM 42.4867 -106.6517 321° Northwest 437 503 26,000  Level Denver Center
10:10PM 42.5758 -106.7517 320° Northwest 435 501 26,000  Level Denver Center
10:11PM 42.6667 -106.8533 321° Northwest 440 506 26,000  Level Denver Center
10:12PM 42.7711 -106.9717 320° Northwest 438 504 26,000  Level Denver Center
10:13PM 42.8622 -107.0725 321° Northwest 439 505 26,000  Level Denver Center
10:14PM 42.9208 -107.1422 319° Northwest 439 505 26,000  Level Salt Lake Center
10:15PM 43.0147 -107.2486 320° Northwest 447 514 26,000  Level Salt Lake Center
10:16PM 43.1089 -107.3575 320° Northwest 445 512 26,000  Level Salt Lake Center
10:17PM 43.2033 -107.4650 320° Northwest 443 510 26,000  Level Salt Lake Center
10:18PM 43.3172 -107.5972 320° Northwest 446 513 26,000  Level Salt Lake Center
10:19PM 43.4108 -107.7069 320° Northwest 444 511 26,000  Level Salt Lake Center
10:20PM 43.5047 -107.8136 321° Northwest 438 504 26,000  Level Salt Lake Center
10:21PM 43.5986 -107.9225 320° Northwest 440 506 26,000  Level Salt Lake Center
10:22PM 43.6906 -108.0331 319° Northwest 439 505 26,000  Level Salt Lake Center
10:23PM 43.7828 -108.1419 320° Northwest 435 501 26,000 -787 Level Salt Lake Center
10:24PM 43.8675 -108.2192 327° Northwest 370 426 24,400 -2,016 Descending Salt Lake Center
10:25PM 43.9508 -108.2947 327° Northwest 358 412 21,900 -2,459 Descending Salt Lake Center
10:26PM 44.0314 -108.3658 328° Northwest 350 403 19,400 -2,361 Descending Salt Lake Center
10:27PM 44.1117 -108.4389 327° Northwest 346 398 17,100 -2,231 Descending Salt Lake Center
10:28PM 44.1911 -108.5097 327° Northwest 344 396 14,900 -2,083 Descending Salt Lake Center
10:29PM 44.2658 -108.5767 327° Northwest 335 386 12,900 -1,820 Descending Salt Lake Center
10:30PM 44.3389 -108.6422 327° Northwest 324 373 11,200 -1,574 Descending Salt Lake Center
10:31PM 44.4103 -108.7069 327° Northwest 316 364 9,700 -1,082 Descending Salt Lake Center
10:32PM 44.4792 -108.7689 327° Northwest 307 353 9,000 -347 Descending Salt Lake Center
10:33PM 44.5350 -108.8192 327° Northwest 275 316 9,000 -397 Level Salt Lake Center
10:34PM 44.5828 -108.8672 324° Northwest 239 275 8,200 -934 Descending Salt Lake Center
10:35PM 44.5717 -108.9361 257° West 218 251 7,100 -1,180 Descending Salt Lake Center
10:36PM 44.5414 -108.9864 230° Southwest 186 214 5,800 -1,279 Descending Salt Lake Center